Česky Dansk Deutsch English Español Suomi Français Magyar Italiano Nederlands norsk Polski Português svenska Türkçe

 

Het Weer

Paris-Orly (Frankrijk)

06:30, 23 agosto 2016 (GMT)

NWNNE
WE
SWSSE
Home            
Paris-Orly Paris Met Center Villacoublay Melun Paris / Le Bourget Paris-Aeroport Charles De Gaulle Creil Fafb Chartres Beauvais Evreux Toussus Le Noble Orleans Chateaudun Rouen Troyes Chalons-Vatry Saint-Quentin Auxerre Reims Abbeville Suippes Range Met Romorantin Alencon

Om een weerknop op uw website of weblog te plaatsen, copieer onderstaande code en plak die in uw pagina. In het eerste vakje staat HTML-code, in het tweede vakje UBB-code.


Add to Google

Details

Visibilità totale:Maggiore di 10000 m, 10 km, 32800 ft, 6.2 miles
Clouds:CAVOC
Temperature:20°C, 68°F
Temperatura di rugiada :14°C, 57°F
Pressione atmosferica:1025 hPa, 768.8 mmHg, 30.27 inHg, 1.012 atm
Umidità relativa:68.4 %
METAR:LFPO 230630Z 00000KT CAVOK 20/14 Q1025 NOSIG

Snelkoppelingen

Actuele weersinformatie van de hele wereld. Voeg locaties toe met het plus (+) symbool. Deze snelkoppelingen kunnen worden toegevoegd aan Google.

Lid van de Technetium groep

website free tracking
StatCounter NetStat W3C Validator

04-10-2022 06:20:13
astro.technetium.be money.technetium.be phote.technetium.be tafeltennistafel.technetium.be www.ligfiets.net